createdAt,value
2018-12-19T00:00:23.947Z,2.00
2018-12-19T00:01:23.953Z,1.90
2018-12-19T00:02:23.956Z,2.10
2018-12-19T00:03:23.965Z,2.30
2018-12-19T00:04:23.967Z,1.90
2018-12-19T00:05:23.965Z,2.00
2018-12-19T00:06:23.978Z,2.00
2018-12-19T00:07:23.979Z,2.10
2018-12-19T00:08:24.027Z,1.90
2018-12-19T00:09:23.986Z,2.20
2018-12-19T00:10:24.027Z,2.10
2018-12-19T00:11:23.996Z,2.10
2018-12-19T00:12:24.023Z,2.10
2018-12-19T00:13:23.995Z,2.00
2018-12-19T00:14:24.001Z,2.00
2018-12-19T00:15:24.001Z,2.10
2018-12-19T00:16:24.013Z,2.00
2018-12-19T00:17:24.016Z,1.90
2018-12-19T00:18:24.013Z,1.90
2018-12-19T00:19:24.016Z,1.90
2018-12-19T00:20:24.025Z,2.00
2018-12-19T00:21:24.021Z,2.00
2018-12-19T00:22:24.030Z,1.90
2018-12-19T00:23:24.037Z,2.00
2018-12-19T00:24:24.053Z,1.90
2018-12-19T00:25:24.043Z,1.90
2018-12-19T00:26:24.041Z,1.90
2018-12-19T00:27:24.053Z,2.00
2018-12-19T00:28:24.049Z,1.90
2018-12-19T00:29:24.054Z,2.00
2018-12-19T00:30:24.057Z,1.90
2018-12-19T00:31:24.061Z,2.10
2018-12-19T00:32:24.073Z,2.00
2018-12-19T00:33:24.262Z,1.90
2018-12-19T00:34:24.069Z,1.70
2018-12-19T00:35:24.075Z,1.80
2018-12-19T00:36:24.078Z,2.10
2018-12-19T00:37:24.081Z,1.80
2018-12-19T00:38:24.087Z,1.90
2018-12-19T00:39:24.089Z,2.20
2018-12-19T00:40:24.097Z,1.70
2018-12-19T00:41:24.095Z,1.80
2018-12-19T00:42:24.100Z,2.00
2018-12-19T00:43:24.105Z,1.70
2018-12-19T00:44:24.111Z,2.00
2018-12-19T00:45:24.113Z,1.90
2018-12-19T00:46:24.147Z,1.70
2018-12-19T00:47:24.119Z,2.00
2018-12-19T00:48:24.120Z,1.90
2018-12-19T00:49:24.127Z,1.90
2018-12-19T00:50:24.127Z,1.90
2018-12-19T00:51:24.131Z,1.90
2018-12-19T00:52:24.138Z,1.70
2018-12-19T00:53:24.141Z,1.90
2018-12-19T00:54:24.145Z,1.90
2018-12-19T00:55:24.147Z,2.30
2018-12-19T00:56:24.149Z,1.80
2018-12-19T00:57:24.147Z,1.80
2018-12-19T00:58:24.163Z,1.80
2018-12-19T00:59:24.161Z,2.10
2018-12-19T01:00:24.178Z,1.80
2018-12-19T01:01:24.169Z,1.70
2018-12-19T01:02:24.179Z,1.70
2018-12-19T01:03:24.175Z,1.70
2018-12-19T01:04:24.179Z,1.70
2018-12-19T01:05:24.179Z,1.80
2018-12-19T01:06:24.189Z,1.90
2018-12-19T01:07:24.191Z,1.80
2018-12-19T01:08:24.198Z,1.80
2018-12-19T01:09:24.199Z,1.70
2018-12-19T01:10:24.201Z,1.90
2018-12-19T01:11:24.211Z,1.60
2018-12-19T01:12:24.207Z,1.80
2018-12-19T01:13:24.211Z,1.80
2018-12-19T01:14:24.220Z,1.80
2018-12-19T01:15:24.222Z,1.70
2018-12-19T01:16:24.232Z,1.90
2018-12-19T01:17:24.226Z,1.80
2018-12-19T01:18:24.231Z,1.70
2018-12-19T01:19:24.233Z,1.60
2018-12-19T01:20:24.235Z,1.80
2018-12-19T01:21:24.240Z,1.90
2018-12-19T01:22:24.249Z,2.10
2018-12-19T01:23:24.246Z,1.80
2018-12-19T01:24:24.253Z,1.70
2018-12-19T01:25:24.251Z,1.80
2018-12-19T01:26:24.257Z,1.90
2018-12-19T01:27:24.263Z,1.60
2018-12-19T01:28:24.263Z,1.80
2018-12-19T01:29:24.285Z,1.70
2018-12-19T01:30:24.271Z,1.60
2018-12-19T01:31:24.293Z,1.70
2018-12-19T01:32:24.284Z,1.70
2018-12-19T01:33:24.281Z,1.60
2018-12-19T01:34:24.291Z,1.90
2018-12-19T01:35:24.291Z,1.90
2018-12-19T01:36:24.298Z,1.70
2018-12-19T01:37:24.369Z,1.80
2018-12-19T01:38:24.312Z,1.50
2018-12-19T01:39:24.305Z,1.60
2018-12-19T01:40:24.315Z,1.50
2018-12-19T01:41:24.311Z,1.50
2018-12-19T01:42:24.318Z,1.80
2018-12-19T01:43:24.325Z,1.80
2018-12-19T01:44:24.325Z,1.50
2018-12-19T01:45:24.329Z,1.80
2018-12-19T01:46:24.337Z,1.60
2018-12-19T01:47:24.333Z,1.40
2018-12-19T01:48:24.347Z,1.60
2018-12-19T01:49:24.341Z,1.50
2018-12-19T01:50:24.341Z,1.70
2018-12-19T01:51:24.347Z,1.50
2018-12-19T01:52:24.355Z,1.70
2018-12-19T01:53:24.359Z,1.60
2018-12-19T01:54:24.376Z,1.60
2018-12-19T01:55:24.361Z,1.70
2018-12-19T01:56:24.365Z,1.30
2018-12-19T01:57:24.368Z,1.70
2018-12-19T01:58:24.373Z,1.70
2018-12-19T01:59:24.385Z,1.50
2018-12-19T02:00:24.384Z,1.90
2018-12-19T02:01:24.388Z,1.50
2018-12-19T02:02:24.387Z,1.50
2018-12-19T02:03:24.397Z,1.50
2018-12-19T02:04:24.391Z,1.50
2018-12-19T02:05:24.404Z,1.80
2018-12-19T02:06:24.410Z,1.60
2018-12-19T02:07:24.405Z,1.60
2018-12-19T02:08:24.411Z,1.60
2018-12-19T02:09:28.879Z,1.70
2018-12-19T02:10:24.411Z,1.70
2018-12-19T02:11:24.421Z,1.70
2018-12-19T02:12:24.424Z,1.30
2018-12-19T02:13:24.427Z,1.60
2018-12-19T02:14:24.434Z,1.70
2018-12-19T02:15:24.437Z,1.50
2018-12-19T02:16:24.442Z,1.30
2018-12-19T02:17:24.438Z,1.50
2018-12-19T02:18:24.445Z,1.60
2018-12-19T02:19:24.464Z,1.30
2018-12-19T02:20:24.447Z,1.60
2018-12-19T02:21:24.455Z,1.60
2018-12-19T02:22:24.463Z,1.70
2018-12-19T02:23:24.468Z,1.60
2018-12-19T02:24:24.472Z,1.50
2018-12-19T02:25:24.465Z,1.60
2018-12-19T02:26:24.480Z,1.50
2018-12-19T02:27:24.473Z,1.50
2018-12-19T02:28:24.477Z,1.60
2018-12-19T02:29:24.492Z,1.70
2018-12-19T02:30:24.489Z,1.70
2018-12-19T02:31:24.495Z,1.60
2018-12-19T02:32:24.515Z,1.60
2018-12-19T02:33:24.503Z,1.60
2018-12-19T02:34:24.505Z,1.40
2018-12-19T02:35:24.507Z,1.50
2018-12-19T02:36:24.513Z,1.70
2018-12-19T02:37:24.521Z,1.80
2018-12-19T02:38:24.533Z,1.70
2018-12-19T02:39:24.516Z,1.50
2018-12-19T02:40:24.533Z,1.60
2018-12-19T02:41:24.522Z,1.50
2018-12-19T02:42:24.537Z,1.60
2018-12-19T02:43:24.529Z,1.50
2018-12-19T02:44:24.539Z,1.70
2018-12-19T02:45:24.545Z,1.50
2018-12-19T02:46:24.546Z,1.40
2018-12-19T02:47:24.611Z,1.20
2018-12-19T02:48:24.558Z,1.70
2018-12-19T02:49:24.571Z,1.60
2018-12-19T02:50:24.561Z,1.70
2018-12-19T02:51:24.578Z,1.30
2018-12-19T02:52:24.567Z,1.40
2018-12-19T02:53:24.580Z,1.80
2018-12-19T02:54:24.590Z,1.50
2018-12-19T02:55:24.582Z,1.50
2018-12-19T02:56:24.579Z,1.60
2018-12-19T02:57:25.163Z,1.50
2018-12-19T02:58:24.588Z,1.60
2018-12-19T02:59:24.603Z,1.50
2018-12-19T03:00:24.602Z,1.50
2018-12-19T03:01:24.604Z,1.40
2018-12-19T03:02:24.602Z,1.40
2018-12-19T03:03:24.647Z,1.70
2018-12-19T03:04:24.612Z,1.40
2018-12-19T03:05:24.613Z,1.60
2018-12-19T03:06:24.617Z,1.40
2018-12-19T03:07:24.624Z,1.50
2018-12-19T03:08:24.628Z,1.60
2018-12-19T03:09:24.641Z,1.60
2018-12-19T03:10:24.646Z,1.40
2018-12-19T03:11:24.748Z,1.40
2018-12-19T03:12:24.644Z,1.30
2018-12-19T03:13:24.651Z,1.60
2018-12-19T03:14:24.643Z,1.60
2018-12-19T03:15:25.183Z,1.50
2018-12-19T03:16:24.656Z,1.50
2018-12-19T03:17:24.660Z,1.20
2018-12-19T03:18:24.660Z,1.20
2018-12-19T03:19:24.712Z,1.30
2018-12-19T03:20:24.664Z,1.10
2018-12-19T03:21:24.752Z,1.40
2018-12-19T03:22:24.672Z,1.40
2018-12-19T03:23:24.779Z,1.50
2018-12-19T03:24:24.683Z,1.20
2018-12-19T03:25:24.741Z,1.50
2018-12-19T03:26:24.693Z,1.60
2018-12-19T03:27:24.726Z,1.30
2018-12-19T03:28:24.698Z,1.50
2018-12-19T03:29:24.808Z,1.20
2018-12-19T03:30:24.720Z,1.40
2018-12-19T03:31:24.722Z,1.40
2018-12-19T03:32:24.709Z,1.10
2018-12-19T03:33:24.718Z,1.40
2018-12-19T03:34:24.717Z,1.50
2018-12-19T03:35:24.739Z,1.30
2018-12-19T03:36:24.725Z,1.50
2018-12-19T03:37:24.732Z,1.20
2018-12-19T03:38:24.736Z,1.70
2018-12-19T03:39:24.740Z,1.50
2018-12-19T03:40:24.737Z,1.50
2018-12-19T03:41:24.759Z,1.40
2018-12-19T03:42:24.756Z,1.00
2018-12-19T03:43:24.745Z,1.30
2018-12-19T03:44:24.757Z,1.20
2018-12-19T03:45:24.765Z,1.50
2018-12-19T03:46:24.764Z,1.40
2018-12-19T03:47:24.762Z,1.20
2018-12-19T03:48:24.769Z,1.50
2018-12-19T03:49:24.774Z,1.40
2018-12-19T03:50:24.777Z,1.30
2018-12-19T03:51:24.787Z,1.10
2018-12-19T03:52:24.783Z,1.20
2018-12-19T03:53:24.792Z,1.20
2018-12-19T03:54:24.791Z,1.30
2018-12-19T03:55:24.795Z,1.30
2018-12-19T03:56:24.793Z,1.20
2018-12-19T03:57:24.805Z,1.30
2018-12-19T03:58:24.802Z,1.20
2018-12-19T03:59:24.818Z,1.40
2018-12-19T04:00:24.828Z,1.30
2018-12-19T04:01:24.815Z,1.30
2018-12-19T04:02:24.818Z,1.40
2018-12-19T04:03:24.829Z,1.20
2018-12-19T04:04:24.825Z,1.20
2018-12-19T04:05:24.829Z,1.20
2018-12-19T04:06:24.828Z,1.00
2018-12-19T04:07:24.830Z,1.20
2018-12-19T04:08:24.841Z,1.40
2018-12-19T04:09:24.850Z,1.20
2018-12-19T04:10:24.848Z,1.20
2018-12-19T04:11:24.850Z,1.40
2018-12-19T04:12:24.851Z,1.20
2018-12-19T04:13:24.854Z,1.30
2018-12-19T04:14:24.858Z,1.10
2018-12-19T04:15:24.862Z,1.30
2018-12-19T04:16:24.872Z,1.40
2018-12-19T04:17:24.874Z,1.10
2018-12-19T04:18:24.961Z,1.40
2018-12-19T04:19:24.878Z,1.40
2018-12-19T04:20:24.884Z,1.00
2018-12-19T04:21:24.894Z,1.30
2018-12-19T04:22:24.893Z,1.10
2018-12-19T04:23:24.897Z,1.30
2018-12-19T04:24:24.896Z,1.00
2018-12-19T04:25:24.907Z,1.10
2018-12-19T04:26:24.902Z,1.10
2018-12-19T04:27:24.916Z,0.90
2018-12-19T04:28:24.914Z,1.20
2018-12-19T04:29:24.913Z,1.00
2018-12-19T04:30:24.941Z,1.00
2018-12-19T04:31:24.923Z,1.10
2018-12-19T04:32:24.925Z,1.00
2018-12-19T04:33:24.926Z,1.00
2018-12-19T04:34:24.937Z,1.10
2018-12-19T04:35:24.943Z,1.00
2018-12-19T04:36:24.941Z,1.20
2018-12-19T04:37:24.940Z,1.10
2018-12-19T04:38:25.699Z,1.10
2018-12-19T04:39:24.949Z,1.00
2018-12-19T04:40:24.954Z,1.20
2018-12-19T04:41:24.953Z,1.00
2018-12-19T04:42:24.958Z,1.00
2018-12-19T04:43:24.964Z,0.90
2018-12-19T04:44:24.967Z,1.40
2018-12-19T04:45:24.973Z,1.20
2018-12-19T04:46:24.982Z,1.10
2018-12-19T04:47:24.975Z,0.90
2018-12-19T04:48:24.994Z,1.00
2018-12-19T04:49:24.985Z,1.30
2018-12-19T04:50:24.991Z,1.20
2018-12-19T04:51:25.002Z,1.10
2018-12-19T04:52:24.994Z,1.00
2018-12-19T04:53:25.003Z,0.90
2018-12-19T04:54:25.005Z,1.00
2018-12-19T04:55:25.006Z,0.90
2018-12-19T04:56:25.009Z,1.20
2018-12-19T04:57:25.015Z,1.00
2018-12-19T04:58:25.016Z,1.20
2018-12-19T04:59:25.017Z,0.90
2018-12-19T05:00:25.029Z,1.00
2018-12-19T05:01:25.029Z,1.00
2018-12-19T05:02:25.035Z,1.00
2018-12-19T05:03:25.037Z,1.00
2018-12-19T05:04:25.027Z,1.00
2018-12-19T05:05:25.051Z,0.90
2018-12-19T05:06:25.046Z,1.10
2018-12-19T05:07:25.045Z,1.00
2018-12-19T05:08:25.052Z,0.90
2018-12-19T05:09:25.060Z,0.90
2018-12-19T05:10:25.061Z,0.90
2018-12-19T05:11:25.060Z,1.00
2018-12-19T05:12:25.066Z,1.20
2018-12-19T05:13:25.068Z,1.20
2018-12-19T05:14:25.072Z,1.00
2018-12-19T05:15:25.081Z,0.80
2018-12-19T05:16:25.086Z,1.20
2018-12-19T05:17:25.083Z,1.20
2018-12-19T05:18:25.090Z,1.00
2018-12-19T05:19:25.105Z,0.90
2018-12-19T05:20:25.092Z,1.10
2018-12-19T05:21:25.096Z,0.90
2018-12-19T05:22:25.105Z,1.00
2018-12-19T05:23:25.106Z,0.90
2018-12-19T05:24:25.112Z,0.90
2018-12-19T05:25:25.111Z,1.10
2018-12-19T05:26:25.119Z,1.20
2018-12-19T05:27:25.117Z,1.00
2018-12-19T05:28:25.119Z,1.30
2018-12-19T05:29:25.122Z,1.10
2018-12-19T05:30:25.124Z,1.00
2018-12-19T05:31:25.130Z,1.20
2018-12-19T05:32:25.141Z,1.10
2018-12-19T05:33:25.144Z,1.20
2018-12-19T05:34:25.147Z,1.30
2018-12-19T05:35:25.145Z,1.10
2018-12-19T05:36:26.492Z,1.20
2018-12-19T05:37:25.152Z,1.30
2018-12-19T05:38:25.157Z,1.10
2018-12-19T05:39:25.163Z,1.30
2018-12-19T05:40:25.164Z,1.00
2018-12-19T05:41:25.166Z,1.20
2018-12-19T05:42:25.174Z,1.30
2018-12-19T05:43:25.177Z,1.40
2018-12-19T05:44:25.178Z,1.20
2018-12-19T05:45:25.175Z,1.10
2018-12-19T05:46:25.185Z,1.10
2018-12-19T05:47:25.189Z,1.50
2018-12-19T05:48:25.193Z,1.40
2018-12-19T05:49:25.206Z,1.40
2018-12-19T05:50:25.198Z,1.10
2018-12-19T05:51:25.199Z,7.60
2018-12-19T05:52:25.209Z,12.30
2018-12-19T05:53:25.210Z,12.40
2018-12-19T05:54:25.229Z,14.70
2018-12-19T05:55:25.214Z,12.90
2018-12-19T05:56:25.219Z,13.60
2018-12-19T05:57:25.223Z,15.60
2018-12-19T05:58:25.223Z,13.30
2018-12-19T05:59:25.239Z,15.70
2018-12-19T06:00:25.231Z,12.70
2018-12-19T06:01:25.233Z,13.00
2018-12-19T06:02:25.241Z,11.10
2018-12-19T06:03:25.247Z,12.00
2018-12-19T06:04:25.245Z,9.40
2018-12-19T06:05:25.257Z,11.30
2018-12-19T06:06:25.249Z,10.60
2018-12-19T06:07:25.253Z,10.20
2018-12-19T06:08:25.259Z,8.70
2018-12-19T06:09:25.259Z,8.10
2018-12-19T06:10:26.258Z,10.00
2018-12-19T06:11:25.271Z,7.80
2018-12-19T06:12:25.276Z,8.10
2018-12-19T06:13:25.277Z,11.30
2018-12-19T06:14:25.279Z,8.10
2018-12-19T06:15:25.284Z,8.70
2018-12-19T06:16:25.286Z,8.60
2018-12-19T06:17:25.292Z,8.00
2018-12-19T06:18:25.305Z,7.60
2018-12-19T06:19:25.300Z,7.10
2018-12-19T06:20:25.297Z,6.80
2018-12-19T06:21:25.308Z,9.20
2018-12-19T06:22:25.314Z,8.10
2018-12-19T06:23:25.314Z,15.80
2018-12-19T06:24:25.314Z,12.50
2018-12-19T06:25:25.320Z,19.70
2018-12-19T06:26:25.326Z,24.10
2018-12-19T06:27:25.330Z,24.50
2018-12-19T06:28:25.329Z,26.60
2018-12-19T06:29:25.334Z,25.70
2018-12-19T06:30:25.338Z,27.20
2018-12-19T06:31:25.342Z,20.90
2018-12-19T06:32:25.342Z,21.70
2018-12-19T06:33:25.347Z,20.60
2018-12-19T06:34:25.351Z,21.60
2018-12-19T06:35:25.352Z,15.60
2018-12-19T06:36:25.378Z,19.40
2018-12-19T06:37:25.368Z,17.90
2018-12-19T06:38:25.360Z,19.70
2018-12-19T06:39:25.369Z,16.70
2018-12-19T06:40:25.372Z,17.00
2018-12-19T06:41:25.372Z,15.90
2018-12-19T06:42:25.381Z,14.20
2018-12-19T06:43:25.385Z,14.70
2018-12-19T06:44:25.396Z,14.30
2018-12-19T06:45:25.391Z,13.40
2018-12-19T06:46:25.391Z,16.00
2018-12-19T06:47:25.396Z,11.60
2018-12-19T06:48:25.398Z,14.80
2018-12-19T06:49:25.400Z,18.70
2018-12-19T06:50:25.402Z,10.00
2018-12-19T06:51:25.408Z,12.20
2018-12-19T06:52:25.418Z,10.60
2018-12-19T06:53:25.416Z,12.10
2018-12-19T06:54:25.453Z,13.80
2018-12-19T06:55:25.441Z,11.70
2018-12-19T06:56:25.434Z,13.70
2018-12-19T06:57:25.428Z,10.10
2018-12-19T06:58:25.440Z,9.20
2018-12-19T06:59:25.436Z,10.30
2018-12-19T07:00:25.441Z,10.50
2018-12-19T07:01:25.445Z,13.10
2018-12-19T07:02:25.446Z,10.70
2018-12-19T07:03:25.455Z,9.80
2018-12-19T07:04:25.454Z,10.90
2018-12-19T07:05:25.454Z,12.80
2018-12-19T07:06:25.470Z,10.50
2018-12-19T07:07:25.466Z,9.70
2018-12-19T07:08:25.462Z,10.00
2018-12-19T07:09:25.515Z,10.90
2018-12-19T07:10:25.470Z,9.30
2018-12-19T07:11:25.476Z,8.70
2018-12-19T07:12:25.482Z,8.40
2018-12-19T07:13:25.489Z,9.50
2018-12-19T07:14:25.488Z,8.10
2018-12-19T07:15:25.505Z,8.10
2018-12-19T07:16:43.564Z,4.50
2018-12-19T07:17:28.316Z,4.00
2018-12-19T07:18:25.498Z,3.30
2018-12-19T07:19:25.504Z,3.40
2018-12-19T07:20:25.505Z,3.20
2018-12-19T07:21:26.040Z,3.10
2018-12-19T07:22:25.512Z,2.80
2018-12-19T07:23:25.516Z,2.90
2018-12-19T07:24:25.518Z,3.40
2018-12-19T07:25:25.522Z,3.10
2018-12-19T07:26:25.571Z,3.00
2018-12-19T07:27:25.530Z,3.40
2018-12-19T07:28:25.526Z,4.50
2018-12-19T07:29:25.542Z,3.70
2018-12-19T07:30:25.538Z,3.70
2018-12-19T07:31:26.260Z,4.70
2018-12-19T07:32:25.546Z,4.90
2018-12-19T07:33:25.543Z,4.50
2018-12-19T07:34:25.550Z,5.00
2018-12-19T07:35:25.559Z,5.00
2018-12-19T07:36:25.547Z,4.10
2018-12-19T07:37:26.260Z,5.30
2018-12-19T07:38:25.560Z,6.40
2018-12-19T07:39:25.573Z,6.10
2018-12-19T07:40:25.569Z,4.10
2018-12-19T07:41:25.560Z,6.20
2018-12-19T07:42:26.265Z,4.80
2018-12-19T07:43:25.562Z,3.50
2018-12-19T07:44:25.581Z,3.30
2018-12-19T07:45:25.568Z,3.80
2018-12-19T07:46:25.590Z,4.00
2018-12-19T07:47:25.572Z,3.60
2018-12-19T07:48:25.576Z,3.40
2018-12-19T07:49:25.582Z,4.40
2018-12-19T07:50:26.268Z,3.60
2018-12-19T07:51:25.581Z,3.80
2018-12-19T07:52:25.584Z,3.60
2018-12-19T07:53:25.588Z,2.80
2018-12-19T07:54:25.596Z,3.00
2018-12-19T07:55:25.591Z,4.30
2018-12-19T07:56:25.599Z,4.20
2018-12-19T07:57:25.598Z,2.90
2018-12-19T07:58:25.600Z,3.00
2018-12-19T07:59:25.598Z,3.10
2018-12-19T08:00:27.660Z,4.50
2018-12-19T08:01:25.606Z,3.00
2018-12-19T08:02:25.606Z,5.40
2018-12-19T08:03:25.616Z,3.20
2018-12-19T08:04:25.620Z,3.30
2018-12-19T08:05:26.332Z,2.80
2018-12-19T08:06:25.625Z,4.40
2018-12-19T08:07:25.622Z,4.00
2018-12-19T08:08:25.628Z,4.00
2018-12-19T08:09:25.628Z,4.50
2018-12-19T08:10:25.630Z,2.80
2018-12-19T08:11:25.635Z,2.90
2018-12-19T08:12:27.026Z,3.00
2018-12-19T08:13:25.644Z,3.00
2018-12-19T08:14:25.648Z,2.80
2018-12-19T08:15:25.646Z,2.70
2018-12-19T08:16:25.644Z,3.50
2018-12-19T08:17:25.655Z,3.60
2018-12-19T08:18:25.662Z,3.30
2018-12-19T08:19:25.663Z,3.40
2018-12-19T08:20:25.666Z,3.50
2018-12-19T08:21:25.666Z,2.30
2018-12-19T08:22:25.673Z,3.70
2018-12-19T08:23:25.674Z,3.40
2018-12-19T08:24:25.673Z,4.10
2018-12-19T08:25:25.676Z,3.70
2018-12-19T08:26:25.682Z,3.00
2018-12-19T08:27:25.682Z,3.90
2018-12-19T08:28:25.688Z,2.40
2018-12-19T08:29:25.700Z,2.50
2018-12-19T08:30:25.692Z,3.60
2018-12-19T08:31:25.699Z,3.10
2018-12-19T08:32:25.706Z,3.00
2018-12-19T08:33:25.698Z,3.40
2018-12-19T08:39:14.633Z,3.20
2018-12-19T08:39:58.569Z,2.90
2018-12-19T08:40:59.537Z,3.50
2018-12-19T08:41:58.580Z,2.90
2018-12-19T08:43:14.032Z,2.40
2018-12-19T08:51:38.340Z,3.40
2018-12-19T08:52:32.859Z,2.50
2018-12-19T08:53:32.876Z,2.70
2018-12-19T08:54:32.873Z,2.80
2018-12-19T08:55:32.868Z,2.90
2018-12-19T08:56:32.874Z,2.50
2018-12-19T08:57:32.875Z,2.90
2018-12-19T09:03:29.741Z,3.20
2018-12-19T09:04:04.787Z,4.50
2018-12-19T09:05:04.783Z,5.30
2018-12-19T09:06:04.788Z,8.10
2018-12-19T09:07:04.804Z,14.40
2018-12-19T09:08:04.792Z,9.10
2018-12-19T09:09:10.741Z,5.40
2018-12-19T09:13:42.063Z,3.40
2018-12-19T09:14:06.063Z,4.70
2018-12-19T09:15:58.164Z,3.70
2018-12-19T09:16:58.160Z,5.90
2018-12-19T09:20:50.186Z,5.60
2018-12-19T09:22:56.603Z,3.90
2018-12-19T09:23:32.860Z,3.30
2018-12-19T09:39:11.877Z,3.60
2018-12-19T09:39:52.445Z,3.10
2018-12-19T09:41:44.372Z,3.00
2018-12-19T09:42:44.349Z,2.30
2018-12-19T09:52:40.859Z,2.30
2018-12-19T09:53:10.425Z,2.80
2018-12-19T09:59:22.568Z,3.00
2018-12-19T10:00:21.715Z,2.90
2018-12-19T10:02:13.621Z,6.50
2018-12-19T10:03:13.609Z,2.90
2018-12-19T10:05:05.544Z,4.60
2018-12-19T10:06:05.542Z,2.90
2018-12-19T10:07:57.471Z,2.40
2018-12-19T10:08:58.398Z,3.50
2018-12-19T10:13:33.545Z,2.90
2018-12-19T10:14:33.480Z,1.90
2018-12-19T10:15:33.479Z,2.70
2018-12-19T10:16:33.486Z,2.50
2018-12-19T10:17:33.490Z,2.20
2018-12-19T10:18:33.487Z,4.10
2018-12-19T10:19:33.489Z,2.80
2018-12-19T10:20:34.449Z,4.30
2018-12-19T10:21:33.487Z,4.10
2018-12-19T10:22:33.499Z,2.50
2018-12-19T10:23:33.508Z,4.40
2018-12-19T10:39:30.937Z,1.90
2018-12-19T10:40:30.925Z,3.50
2018-12-19T10:41:30.924Z,2.50
2018-12-19T10:42:31.538Z,2.40
2018-12-19T10:43:30.931Z,1.60
2018-12-19T10:44:30.933Z,2.00
2018-12-19T10:45:30.939Z,1.90
2018-12-19T10:46:31.539Z,2.20
2018-12-19T10:47:30.944Z,1.80
2018-12-19T10:48:30.950Z,2.30
2018-12-19T10:53:32.002Z,1.80
2018-12-19T10:54:31.988Z,2.20
2018-12-19T10:56:25.422Z,2.80
2018-12-19T10:57:23.914Z,1.90
2018-12-19T10:59:15.914Z,2.80
2018-12-19T11:00:15.904Z,3.40
2018-12-19T11:02:07.816Z,3.10
2018-12-19T11:03:08.772Z,2.20
2018-12-19T11:04:59.793Z,1.90
2018-12-19T11:05:59.714Z,2.20
2018-12-19T11:07:51.644Z,1.80
2018-12-19T11:08:51.622Z,1.90
2018-12-19T11:10:45.023Z,1.80
2018-12-19T11:11:43.573Z,1.90
2018-12-19T11:13:35.587Z,2.20
2018-12-19T11:14:35.563Z,2.00
2018-12-19T11:16:27.483Z,1.40
2018-12-19T11:17:28.422Z,1.60
2018-12-19T11:19:19.412Z,1.60
2018-12-19T11:21:31.371Z,2.60
2018-12-19T11:22:31.344Z,1.60
2018-12-19T11:24:23.288Z,1.90
2018-12-19T11:25:23.278Z,2.10
2018-12-19T11:27:15.222Z,2.00
2018-12-19T11:28:16.142Z,1.60
2018-12-19T11:30:07.158Z,1.70
2018-12-19T11:31:07.119Z,1.80
2018-12-19T11:32:59.063Z,1.70
2018-12-19T11:33:59.988Z,1.60
2018-12-19T11:35:50.976Z,2.10
2018-12-19T11:36:50.967Z,2.20
2018-12-19T11:38:42.914Z,1.60
2018-12-19T11:39:42.893Z,1.70
2018-12-19T11:41:38.977Z,1.30
2018-12-19T11:42:34.807Z,3.40
2018-12-19T11:44:28.671Z,1.50
2018-12-19T11:45:27.239Z,1.60
2018-12-19T11:47:18.696Z,2.30
2018-12-19T11:48:18.665Z,1.30
2018-12-19T11:50:10.595Z,1.60
2018-12-19T11:51:10.582Z,1.50
2018-12-19T11:53:03.447Z,2.00
2018-12-19T11:54:02.502Z,1.40
2018-12-19T11:55:54.493Z,1.60
2018-12-19T11:56:54.427Z,1.80
2018-12-19T11:58:47.285Z,2.20
2018-12-19T11:59:47.285Z,1.60
2018-12-19T12:01:41.309Z,2.10
2018-12-19T12:02:38.263Z,1.90
2018-12-19T12:04:30.253Z,1.80
2018-12-19T12:05:30.235Z,1.60
2018-12-19T12:07:22.186Z,1.70
2018-12-19T12:08:22.166Z,1.60
2018-12-19T12:10:14.090Z,1.70
2018-12-19T12:11:14.081Z,1.40
2018-12-19T12:13:06.032Z,2.30
2018-12-19T12:14:06.024Z,1.50
2018-12-19T12:15:58.099Z,1.90
2018-12-19T12:16:58.093Z,2.70
2018-12-19T12:18:50.025Z,2.10
2018-12-19T12:19:50.018Z,1.90
2018-12-19T12:21:41.953Z,1.60
2018-12-19T12:22:41.934Z,1.50
2018-12-19T12:24:33.911Z,2.60
2018-12-19T12:25:33.893Z,1.40
2018-12-19T12:27:25.874Z,2.10
2018-12-19T12:28:26.773Z,1.50
2018-12-19T12:30:17.786Z,1.50
2018-12-19T12:31:17.774Z,1.70
2018-12-19T12:33:09.711Z,1.50
2018-12-19T12:34:09.702Z,1.50
2018-12-19T12:36:01.634Z,1.60
2018-12-19T12:37:01.624Z,1.80
2018-12-19T12:38:53.612Z,2.30
2018-12-19T12:39:53.603Z,1.60
2018-12-19T12:41:52.161Z,1.30
2018-12-19T12:42:45.527Z,1.40
2018-12-19T12:44:37.418Z,1.80
2018-12-19T12:45:37.419Z,1.80
2018-12-19T12:47:29.355Z,1.60
2018-12-19T12:48:30.287Z,1.70
2018-12-19T12:50:21.313Z,2.20
2018-12-19T12:51:21.277Z,1.30
2018-12-19T12:53:13.277Z,2.00
2018-12-19T12:54:13.208Z,1.50
2018-12-19T12:56:05.159Z,1.60
2018-12-19T12:57:05.155Z,2.40
2018-12-19T12:58:57.054Z,3.40
2018-12-19T12:59:57.207Z,2.70
2018-12-19T13:01:48.977Z,1.60
2018-12-19T13:02:48.965Z,1.70
2018-12-19T13:04:40.897Z,2.30
2018-12-19T13:05:40.882Z,2.40
2018-12-19T13:07:32.813Z,1.90
2018-12-19T13:08:32.805Z,2.90
2018-12-19T13:10:24.744Z,1.60
2018-12-19T13:11:24.734Z,2.40
2018-12-19T13:13:16.659Z,3.00
2018-12-19T13:14:16.655Z,2.40
2018-12-19T13:16:08.560Z,3.20
2018-12-19T13:17:08.555Z,3.00
2018-12-19T13:19:00.498Z,4.20
2018-12-19T13:20:00.482Z,2.50
2018-12-19T13:21:52.531Z,3.20
2018-12-19T13:22:52.510Z,2.30
2018-12-19T13:24:44.439Z,2.60
2018-12-19T13:25:44.439Z,2.80
2018-12-19T13:27:36.358Z,2.50
2018-12-19T13:28:36.348Z,2.50
2018-12-19T13:30:28.426Z,2.20
2018-12-19T13:31:28.406Z,3.70
2018-12-19T13:33:20.957Z,2.70
2018-12-19T13:34:20.802Z,2.40
2018-12-19T13:35:20.808Z,2.30
2018-12-19T13:36:20.808Z,2.30
2018-12-19T13:37:20.818Z,2.90
2018-12-19T13:38:20.818Z,2.40
2018-12-19T13:39:20.823Z,2.70
2018-12-19T13:40:20.823Z,2.90
2018-12-19T13:41:20.830Z,2.30
2018-12-19T13:42:20.835Z,2.60
2018-12-19T13:43:20.841Z,3.20
2018-12-19T13:44:20.850Z,2.70
2018-12-19T13:45:20.844Z,2.30
2018-12-19T13:46:20.856Z,2.80
2018-12-19T13:47:20.854Z,1.90
2018-12-19T13:48:20.862Z,2.00
2018-12-19T13:49:20.864Z,2.10
2018-12-19T13:50:20.866Z,2.20
2018-12-19T13:51:20.873Z,3.20
2018-12-19T13:52:20.880Z,1.80
2018-12-19T13:53:20.881Z,2.10
2018-12-19T13:54:20.883Z,3.00
2018-12-19T13:55:20.887Z,3.10
2018-12-19T13:56:20.896Z,2.00
2018-12-19T13:57:20.898Z,2.50
2018-12-19T13:58:20.903Z,2.30
2018-12-19T13:59:20.906Z,2.30
2018-12-19T14:00:20.908Z,1.70
2018-12-19T14:01:20.913Z,1.90
2018-12-19T14:02:20.927Z,1.80
2018-12-19T14:03:20.916Z,2.70
2018-12-19T14:04:20.925Z,3.90
2018-12-19T14:05:20.929Z,2.00
2018-12-19T14:06:20.937Z,2.10
2018-12-19T14:07:20.937Z,2.20
2018-12-19T14:08:20.937Z,1.90
2018-12-19T14:09:20.951Z,2.20
2018-12-19T14:10:20.949Z,2.20
2018-12-19T14:11:20.955Z,2.40
2018-12-19T14:12:20.969Z,2.40
2018-12-19T14:13:20.963Z,2.50
2018-12-19T14:14:20.967Z,2.70
2018-12-19T14:15:20.968Z,2.10
2018-12-19T14:16:20.973Z,1.70
2018-12-19T14:17:20.976Z,2.10
2018-12-19T14:18:20.981Z,2.30
2018-12-19T14:19:20.984Z,2.00
2018-12-19T14:20:20.988Z,2.40
2018-12-19T14:21:20.993Z,2.50
2018-12-19T14:22:20.993Z,1.90
2018-12-19T14:23:20.995Z,2.40
2018-12-19T14:24:21.006Z,2.10
2018-12-19T14:25:20.999Z,2.10
2018-12-19T14:26:21.013Z,1.80
2018-12-19T14:27:21.005Z,4.00
2018-12-19T14:28:21.019Z,2.40
2018-12-19T14:29:21.013Z,2.10
2018-12-19T14:30:21.028Z,2.40
2018-12-19T14:31:21.017Z,2.10
2018-12-19T14:32:21.031Z,2.70
2018-12-19T14:33:21.038Z,1.80
2018-12-19T14:34:21.046Z,2.30
2018-12-19T14:35:21.043Z,2.30
2018-12-19T14:36:21.051Z,1.90
2018-12-19T14:37:21.798Z,2.50
2018-12-19T14:38:21.064Z,1.70
2018-12-19T14:39:21.057Z,2.70
2018-12-19T14:40:21.056Z,2.00
2018-12-19T14:41:21.179Z,1.80
2018-12-19T14:42:21.071Z,2.50
2018-12-19T14:43:21.080Z,1.80
2018-12-19T14:44:21.085Z,2.80
2018-12-19T14:45:21.176Z,1.70
2018-12-19T14:46:21.090Z,1.80
2018-12-19T14:47:21.130Z,1.90
2018-12-19T14:48:21.096Z,2.00
2018-12-19T14:49:21.084Z,2.00
2018-12-19T14:50:21.096Z,1.60
2018-12-19T14:51:21.257Z,1.90
2018-12-19T14:52:21.104Z,2.20
2018-12-19T14:53:21.114Z,1.80
2018-12-19T14:54:21.127Z,1.70
2018-12-19T14:55:21.115Z,2.80
2018-12-19T14:56:21.121Z,2.10
2018-12-19T14:57:21.124Z,2.10
2018-12-19T14:58:21.132Z,1.90
2018-12-19T14:59:21.124Z,1.60
2018-12-19T15:00:21.137Z,2.20
2018-12-19T15:01:21.143Z,2.00
2018-12-19T15:02:21.144Z,2.00
2018-12-19T15:03:21.142Z,1.80
2018-12-19T15:04:21.151Z,1.90
2018-12-19T15:05:21.146Z,4.00
2018-12-19T15:06:21.162Z,2.20
2018-12-19T15:07:21.158Z,2.40
2018-12-19T15:08:21.170Z,1.80
2018-12-19T15:09:21.236Z,2.70
2018-12-19T15:10:21.170Z,2.10
2018-12-19T15:11:21.168Z,1.80
2018-12-19T15:12:25.776Z,1.60
2018-12-19T15:13:21.813Z,1.80
2018-12-19T15:14:21.187Z,2.00
2018-12-19T15:15:21.200Z,1.70
2018-12-19T15:16:21.196Z,2.10
2018-12-19T15:17:21.208Z,1.80
2018-12-19T15:18:21.196Z,2.20
2018-12-19T15:19:21.220Z,1.80
2018-12-19T15:20:21.207Z,1.90
2018-12-19T15:21:21.203Z,2.50
2018-12-19T15:22:21.216Z,2.00
2018-12-19T15:23:21.344Z,2.50